Time;durP1;ratioP1;P1;durP2;ratioP2;P2;SDS_P1;SDS_P2;PMS_P1;PMS_P2;Temp;Humidity;BMP_temperature;BMP_pressure;BME280_temperature;BME280_humidity;BME280_pressure;Samples;Min_cycle;Max_cycle;Signal;HPM_P1;HPM_P2
2022/05/16 00:02:15;;;;;;;2.58;1.17;;;;;;;25.61;33.85;101066.31;5040078;28;20032;-67
2022/05/16 00:04:44;;;;;;;4.03;1.30;;;;;;;25.54;33.79;101068.28;5033490;28;20060;-66
2022/05/16 00:07:10;;;;;;;4.45;1.77;;;;;;;25.46;33.76;101065.78;5033547;28;20030;-67
2022/05/16 00:09:35;;;;;;;5.35;1.67;;;;;;;25.38;33.91;101060.53;5033384;28;20026;-67
2022/05/16 00:12:02;;;;;;;2.15;1.13;;;;;;;25.35;33.89;101059.06;5033332;28;20470;-66
2022/05/16 00:14:28;;;;;;;3.60;1.55;;;;;;;25.33;33.66;101049.38;5015560;28;20096;-66
2022/05/16 00:16:53;;;;;;;4.45;1.67;;;;;;;25.30;33.98;101049.81;5033079;28;20116;-67
2022/05/16 00:19:18;;;;;;;6.57;1.83;;;;;;;25.25;34.06;101046.91;5033524;28;20104;-68
2022/05/16 00:21:44;;;;;;;3.88;1.50;;;;;;;25.22;33.68;101047.34;5033239;28;20056;-67
2022/05/16 00:24:09;;;;;;;2.67;1.42;;;;;;;25.19;34.40;101037.66;5033397;28;20048;-67
2022/05/16 00:26:35;;;;;;;3.33;1.42;;;;;;;25.20;34.21;101043.97;5033278;28;20033;-66
2022/05/16 00:29:00;;;;;;;2.35;1.67;;;;;;;25.18;34.20;101041.44;5033071;28;20029;-67
2022/05/16 00:31:26;;;;;;;3.13;1.92;;;;;;;25.18;34.27;101040.63;5033079;28;20480;-67
2022/05/16 00:33:51;;;;;;;1.50;1.27;;;;;;;25.16;34.31;101043.56;5033111;28;20060;-66
2022/05/16 00:36:17;;;;;;;1.45;1.17;;;;;;;25.12;34.13;101041.50;5033072;28;20033;-67
2022/05/16 00:38:42;;;;;;;2.92;1.48;;;;;;;25.11;34.17;101050.75;5033193;28;20078;-68
2022/05/16 00:41:07;;;;;;;4.72;1.70;;;;;;;25.07;34.53;101044.06;5037365;28;20112;-67
2022/05/16 00:43:47;;;;;;;5.47;1.73;;;;;;;25.04;34.96;101044.50;5052471;28;20470;-67
2022/05/16 00:46:14;;;;;;;4.15;1.77;;;;;;;24.98;34.42;101045.34;5044524;28;20033;-67
2022/05/16 00:48:39;;;;;;;2.58;1.08;;;;;;;24.96;34.05;101042.81;5052498;28;20457;-67
2022/05/16 00:51:08;;;;;;;2.88;1.50;;;;;;;24.94;34.92;101044.09;5052971;28;20045;-67
2022/05/16 00:53:34;;;;;;;3.92;1.25;;;;;;;24.87;34.98;101047.69;5037868;28;20025;-68
2022/05/16 00:56:00;;;;;;;10.75;2.65;;;;;;;24.82;34.84;101046.66;5032856;28;20442;-67
2022/05/16 00:58:26;;;;;;;4.25;1.52;;;;;;;24.77;34.24;101050.03;5015217;28;20024;-67
2022/05/16 01:00:51;;;;;;;2.28;1.85;;;;;;;24.72;34.33;101036.16;5018345;28;20051;-67
2022/05/16 01:06:07;;;;;;;6.93;2.15;;;;;;;24.60;35.12;101035.13;5036551;28;20071;-67
2022/05/16 01:08:34;;;;;;;2.33;1.60;;;;;;;24.52;35.17;101035.38;5036474;28;20494;-68
2022/05/16 01:11:03;;;;;;;3.15;1.35;;;;;;;24.45;34.72;101041.94;5018665;28;20443;-67
2022/05/16 01:13:30;;;;;;;6.80;1.73;;;;;;;24.38;35.68;101039.19;5036290;28;20028;-66
2022/05/16 01:15:57;;;;;;;6.35;1.35;;;;;;;24.32;35.34;101042.78;5036339;28;20017;-67
2022/05/16 01:18:23;;;;;;;4.10;1.50;;;;;;;24.26;35.51;101040.94;5036405;28;20021;-67
2022/05/16 01:21:04;;;;;;;7.22;1.60;;;;;;;24.21;34.89;101043.44;5018708;28;20036;-67
2022/05/16 01:24:13;;;;;;;3.90;1.85;;;;;;;24.14;35.02;101037.13;5036431;28;20032;-67
2022/05/16 01:26:39;;;;;;;10.18;2.25;;;;;;;24.08;35.65;101037.94;4955822;29;20118;-67
2022/05/16 01:29:05;;;;;;;2.45;1.52;;;;;;;24.05;36.04;101041.13;4963028;28;20457;-67
2022/05/16 01:31:31;;;;;;;5.53;1.40;;;;;;;24.00;36.08;101035.44;4975125;28;20026;-67
2022/05/16 01:33:57;;;;;;;8.30;2.00;;;;;;;23.97;35.93;101033.97;4974918;28;20484;-67
2022/05/16 01:36:23;;;;;;;2.45;1.40;;;;;;;23.95;35.84;101043.44;4958661;28;20511;-67
2022/05/16 01:38:48;;;;;;;5.97;1.98;;;;;;;23.91;35.38;101042.16;4975044;28;20101;-67
2022/05/16 01:41:16;;;;;;;2.20;2.00;;;;;;;23.88;35.34;101046.16;4975188;28;20520;-67
2022/05/16 01:43:45;;;;;;;7.15;1.95;;;;;;;23.84;35.72;101055.88;4974907;28;20109;-67
2022/05/16 01:46:13;;;;;;;3.63;2.15;;;;;;;23.82;35.78;101079.00;4975102;28;20054;-67
2022/05/16 01:48:38;;;;;;;3.83;1.45;;;;;;;23.81;36.58;101069.13;4974440;28;20098;-67
2022/05/16 01:51:07;;;;;;;10.57;1.77;;;;;;;23.82;36.52;101065.31;4975295;28;20484;-67
2022/05/16 01:53:33;;;;;;;7.50;2.08;;;;;;;23.83;36.70;101061.53;4974523;28;20042;-67
2022/05/16 01:55:59;;;;;;;6.50;2.28;;;;;;;23.82;35.83;101062.56;4975446;28;20038;-66
2022/05/16 01:58:24;;;;;;;6.72;2.20;;;;;;;23.76;36.66;101056.91;4974526;28;20396;-67
2022/05/16 02:00:51;;;;;;;3.22;1.98;;;;;;;23.71;35.96;101043.00;5022926;28;20041;-66
2022/05/16 02:03:16;;;;;;;2.72;1.88;;;;;;;23.68;35.99;101046.16;5055668;28;20071;-67
2022/05/16 02:05:43;;;;;;;2.58;1.60;;;;;;;23.65;36.88;101043.84;5055389;28;20628;-67
2022/05/16 02:08:09;;;;;;;8.77;2.08;;;;;;;23.64;36.29;101035.84;5055108;28;20029;-67
2022/05/16 02:10:35;;;;;;;3.47;1.67;;;;;;;23.62;36.34;101038.78;5054311;28;20021;-67
2022/05/16 02:13:03;;;;;;;8.05;1.70;;;;;;;23.60;37.34;101031.84;5049032;28;20087;-67
2022/05/16 02:15:31;;;;;;;4.25;1.73;;;;;;;23.59;37.28;101028.25;5034729;28;20021;-67
2022/05/16 02:17:56;;;;;;;6.78;1.70;;;;;;;23.56;36.32;101023.19;5035006;28;20021;-67
2022/05/16 02:20:22;;;;;;;7.70;1.77;;;;;;;23.56;36.72;101019.66;5035009;28;20029;-66
2022/05/16 02:25:33;;;;;;;3.28;2.05;;;;;;;23.51;36.69;101020.25;5035228;28;20037;-67
2022/05/16 02:27:58;;;;;;;4.72;1.80;;;;;;;23.49;37.28;101019.63;5035075;28;20100;-67
2022/05/16 02:30:23;;;;;;;3.45;2.08;;;;;;;23.48;37.61;101012.47;5035000;28;20047;-67
2022/05/16 02:32:49;;;;;;;6.57;1.83;;;;;;;23.45;36.76;100999.22;5034649;28;20029;-66
2022/05/16 02:35:15;;;;;;;5.65;1.75;;;;;;;23.42;36.84;101004.28;5034747;28;20025;-67
2022/05/16 02:37:41;;;;;;;4.82;1.75;;;;;;;23.38;37.24;101003.00;5034627;28;20390;-67
2022/05/16 02:40:07;;;;;;;3.70;1.95;;;;;;;23.35;37.50;101000.66;5034861;28;20026;-67
2022/05/16 02:42:32;;;;;;;8.63;1.98;;;;;;;23.31;36.96;101002.94;5034889;28;20071;-67
2022/05/16 02:44:58;;;;;;;4.03;1.90;;;;;;;23.24;37.83;100993.91;5034543;28;20459;-67
2022/05/16 02:47:23;;;;;;;6.57;2.70;;;;;;;23.16;37.40;100991.38;5034601;28;20029;-66
2022/05/16 02:49:49;;;;;;;5.13;1.98;;;;;;;23.11;38.04;100992.00;5034562;28;20032;-67
2022/05/16 02:52:14;;;;;;;2.58;1.73;;;;;;;23.06;38.04;100986.28;5034571;28;20036;-67
2022/05/16 02:54:40;;;;;;;3.10;2.00;;;;;;;23.03;38.21;100983.16;5016344;28;20025;-66
2022/05/16 02:57:07;;;;;;;6.63;1.88;;;;;;;22.98;37.52;100991.09;5034498;28;20037;-67
2022/05/16 02:59:33;;;;;;;3.30;1.90;;;;;;;22.93;37.64;100993.63;5034219;28;20053;-68
2022/05/16 03:02:04;;;;;;;4.38;1.80;;;;;;;22.90;38.02;100994.03;5034217;28;20021;-68
2022/05/16 03:04:30;;;;;;;4.38;2.33;;;;;;;22.89;38.52;101004.09;5034223;28;20032;-67
2022/05/16 03:06:56;;;;;;;5.13;1.92;;;;;;;22.86;38.48;101001.81;5034136;28;20079;-67
2022/05/16 03:09:22;;;;;;;17.10;2.10;;;;;;;22.82;38.51;100994.19;5033942;28;20029;-67
2022/05/16 03:11:48;;;;;;;7.38;2.00;;;;;;;22.77;38.48;100999.44;5034150;28;20056;-68
2022/05/16 03:14:13;;;;;;;5.88;2.05;;;;;;;22.74;37.67;100994.38;5033997;28;20072;-67
2022/05/16 03:16:39;;;;;;;7.82;2.35;;;;;;;22.69;38.25;100991.44;5034084;28;20495;-67
2022/05/16 03:19:05;;;;;;;9.95;2.00;;;;;;;22.64;38.94;100985.75;5033907;28;20394;-67
2022/05/16 03:21:30;;;;;;;4.82;2.03;;;;;;;22.60;38.38;100990.72;5016280;28;20033;-67
2022/05/16 03:23:59;;;;;;;3.10;1.85;;;;;;;22.58;37.93;100995.56;5033551;28;20031;-67
2022/05/16 03:26:25;;;;;;;8.15;1.98;;;;;;;22.55;37.88;100995.97;5034295;28;20068;-68
2022/05/16 03:28:51;;;;;;;6.40;1.52;;;;;;;22.50;38.96;100988.38;5033797;28;20029;-67
2022/05/16 03:31:16;;;;;;;5.47;2.20;;;;;;;22.46;38.24;100998.03;5033183;28;20029;-68
2022/05/16 03:33:42;;;;;;;5.63;2.30;;;;;;;22.44;38.59;101000.13;5033817;28;20029;-68
2022/05/16 03:36:08;;;;;;;2.95;1.88;;;;;;;22.43;38.83;100995.69;5016552;28;20026;-68
2022/05/16 03:41:19;;;;;;;5.10;2.05;;;;;;;22.39;38.75;100997.13;5033817;28;20036;-67
2022/05/16 03:43:44;;;;;;;6.28;1.77;;;;;;;22.39;38.56;100997.13;5049031;28;20029;-67
2022/05/16 03:46:10;;;;;;;4.25;2.28;;;;;;;22.41;39.20;100995.06;5048872;28;20033;-68
2022/05/16 03:48:35;;;;;;;3.25;1.77;;;;;;;22.40;38.87;100985.19;5036683;28;20078;-67
2022/05/16 03:51:02;;;;;;;3.92;2.00;;;;;;;22.40;39.05;100993.38;5051922;28;20074;-66
2022/05/16 03:53:27;;;;;;;4.15;2.25;;;;;;;22.41;38.84;100989.59;5042472;28;20032;-67
2022/05/16 03:55:53;;;;;;;5.93;2.10;;;;;;;22.42;38.66;100991.25;5033562;28;20017;-67
2022/05/16 03:58:18;;;;;;;6.78;2.17;;;;;;;22.45;38.42;100990.88;5033821;28;20057;-67
2022/05/16 04:00:44;;;;;;;2.75;1.83;;;;;;;22.48;38.60;100990.47;5033435;28;20052;-67
2022/05/16 04:03:09;;;;;;;5.82;2.63;;;;;;;22.48;38.99;100986.88;5041807;28;20028;-67
2022/05/16 04:05:35;;;;;;;4.28;2.00;;;;;;;22.51;39.40;100990.06;5053365;28;20108;-67
2022/05/16 04:08:01;;;;;;;5.15;2.00;;;;;;;22.52;39.23;100978.09;5035604;28;20094;-68
2022/05/16 04:10:26;;;;;;;5.65;2.10;;;;;;;22.55;39.24;100980.44;5052934;28;20036;-68
2022/05/16 04:12:51;;;;;;;5.88;2.05;;;;;;;22.58;39.38;100980.00;5049242;28;20072;-68
2022/05/16 04:15:17;;;;;;;7.50;2.35;;;;;;;22.60;39.51;100977.94;5033213;28;20033;-66
2022/05/16 04:17:43;;;;;;;9.13;2.42;;;;;;;22.65;38.70;100980.06;5033282;28;20030;-66
2022/05/16 04:20:10;;;;;;;7.13;2.30;;;;;;;22.73;39.03;100984.50;5033267;28;20017;-67
2022/05/16 04:22:35;;;;;;;9.05;2.83;;;;;;;22.79;38.94;100984.53;5015820;28;20021;-67
2022/05/16 04:25:01;;;;;;;3.75;2.33;;;;;;;22.89;39.43;100990.44;5033494;28;20104;-67
2022/05/16 04:27:26;;;;;;;3.20;1.92;;;;;;;22.96;39.06;100987.75;5033301;28;20034;-67
2022/05/16 04:29:52;;;;;;;3.50;2.38;;;;;;;23.06;39.71;100988.22;5033400;28;20472;-67
2022/05/16 04:32:17;;;;;;;5.97;2.03;;;;;;;23.16;38.64;100994.09;5033300;28;20549;-67
2022/05/16 04:34:42;;;;;;;9.15;4.25;;;;;;;23.27;39.80;100995.38;5034463;28;20479;-67
2022/05/16 04:37:08;;;;;;;6.40;2.28;;;;;;;23.38;38.83;100997.53;5036994;28;20467;-66
2022/05/16 04:39:33;;;;;;;5.57;2.60;;;;;;;23.53;38.78;100998.19;5036889;28;20029;-68
2022/05/16 04:44:42;;;;;;;7.47;3.00;;;;;;;23.80;39.89;100996.28;5036799;28;20040;-67
2022/05/16 04:47:08;;;;;;;8.13;2.78;;;;;;;23.91;39.37;100998.38;5036652;28;20033;-68
2022/05/16 04:49:34;;;;;;;4.55;2.00;;;;;;;23.97;39.76;101000.28;5036301;28;20025;-67
2022/05/16 04:52:00;;;;;;;4.38;2.00;;;;;;;24.02;39.37;100997.75;5036747;28;20083;-67
2022/05/16 04:54:27;;;;;;;5.18;2.30;;;;;;;24.07;38.88;101004.25;5036676;28;20028;-67
2022/05/16 04:56:52;;;;;;;4.03;2.20;;;;;;;24.12;38.94;100996.28;5036645;28;20025;-66
2022/05/16 04:59:19;;;;;;;4.35;2.40;;;;;;;24.18;39.74;101000.06;5036249;28;20045;-67
2022/05/16 05:01:45;;;;;;;9.00;3.65;;;;;;;24.22;38.79;101001.31;5036471;28;20024;-67
2022/05/16 05:04:10;;;;;;;9.85;2.88;;;;;;;24.26;39.28;101002.59;5036441;28;20018;-67
2022/05/16 05:06:36;;;;;;;7.63;2.30;;;;;;;24.30;38.82;101009.31;5036428;28;20061;-67
2022/05/16 05:09:01;;;;;;;6.60;2.80;;;;;;;24.33;39.15;101008.88;5036443;28;20498;-67
2022/05/16 05:16:54;;;;;;;5.88;2.50;;;;;;;24.45;38.80;101011.78;5036171;28;20036;-68
2022/05/16 05:19:20;;;;;;;5.88;2.42;;;;;;;24.46;38.61;101006.09;5036240;28;20025;-67
2022/05/16 05:21:45;;;;;;;9.38;2.63;;;;;;;24.50;39.03;101009.25;5036104;28;20033;-67
2022/05/16 05:24:10;;;;;;;10.73;2.45;;;;;;;24.50;39.82;100999.13;5036147;28;20028;-66
2022/05/16 05:26:37;;;;;;;2.75;2.20;;;;;;;24.49;39.88;101002.94;5036303;28;20060;-67
2022/05/16 05:29:02;;;;;;;8.55;2.88;;;;;;;24.48;39.88;101001.25;5036039;28;20131;-67
2022/05/16 05:31:28;;;;;;;6.25;2.20;;;;;;;24.49;39.73;101004.81;5035470;28;20025;-68
2022/05/16 05:33:54;;;;;;;7.18;2.78;;;;;;;24.50;40.18;101012.00;5035907;28;20364;-67
2022/05/16 05:36:20;;;;;;;6.22;2.50;;;;;;;24.52;40.39;101013.44;5036041;28;20063;-66
2022/05/16 05:38:50;;;;;;;8.80;2.33;;;;;;;24.56;39.69;101013.88;5035552;28;20541;-67
2022/05/16 05:41:16;;;;;;;6.25;2.78;;;;;;;24.62;40.10;101019.31;5035900;28;20033;-67
2022/05/16 05:43:41;;;;;;;10.32;2.72;;;;;;;24.70;39.82;101023.72;5035659;28;20025;-67
2022/05/16 05:46:06;;;;;;;9.98;2.55;;;;;;;24.75;40.34;101032.97;5001218;28;20040;-68
2022/05/16 05:48:32;;;;;;;9.23;2.63;;;;;;;24.79;39.77;101034.25;5035578;28;20127;-67
2022/05/16 05:50:57;;;;;;;8.18;2.58;;;;;;;24.82;40.09;101039.28;5035518;28;20028;-68
2022/05/16 05:53:22;;;;;;;11.27;2.42;;;;;;;24.90;39.54;101041.78;5035538;28;20498;-67
2022/05/16 05:55:48;;;;;;;10.60;3.05;;;;;;;24.98;39.38;101037.13;5035370;28;20061;-68
2022/05/16 05:58:15;;;;;;;6.15;2.30;;;;;;;25.07;39.66;101044.06;5035453;28;20032;-67
2022/05/16 06:00:41;;;;;;;8.77;2.45;;;;;;;25.21;39.35;101034.69;5035106;28;20050;-68
2022/05/16 06:03:07;;;;;;;4.60;2.15;;;;;;;25.35;38.80;101037.13;5035496;28;20052;-67
2022/05/16 06:05:33;;;;;;;7.65;2.70;;;;;;;25.49;39.33;101032.41;5035638;28;20037;-67
2022/05/16 06:07:58;;;;;;;5.78;2.33;;;;;;;25.59;39.11;101031.94;5034714;28;20021;-67
2022/05/16 06:10:24;;;;;;;4.88;2.42;;;;;;;25.66;39.07;101039.06;5035160;28;20095;-67
2022/05/16 06:12:50;;;;;;;6.82;2.60;;;;;;;25.66;38.98;101038.19;5035298;28;20032;-67
2022/05/16 06:15:16;;;;;;;9.95;2.53;;;;;;;25.66;39.26;101044.53;5017728;28;20120;-67
2022/05/16 06:17:43;;;;;;;5.75;2.47;;;;;;;25.70;39.04;101048.53;5017414;28;20060;-67
2022/05/16 06:20:09;;;;;;;7.20;3.15;;;;;;;25.72;39.21;101049.13;5035151;28;20445;-67
2022/05/16 06:22:35;;;;;;;7.65;2.95;;;;;;;25.77;39.38;101057.53;5034985;28;20474;-67
2022/05/16 06:27:46;;;;;;;7.88;2.58;;;;;;;25.79;39.83;101049.94;5034943;28;20482;-67
2022/05/16 06:30:12;;;;;;;9.38;3.80;;;;;;;25.84;40.07;101063.00;5034953;28;20021;-67
2022/05/16 06:32:37;;;;;;;6.40;2.95;;;;;;;25.87;40.50;101068.88;5034970;28;20021;-67
2022/05/16 06:35:03;;;;;;;7.03;2.92;;;;;;;25.97;39.74;101074.69;5034750;28;20068;-67
2022/05/16 06:37:28;;;;;;;6.15;2.25;;;;;;;26.07;39.79;101073.38;5034818;28;20022;-67
2022/05/16 06:39:53;;;;;;;4.22;2.20;;;;;;;26.16;39.26;101066.56;5034593;28;20051;-67
2022/05/16 06:42:19;;;;;;;6.60;2.42;;;;;;;26.22;39.18;101071.97;5034640;28;20025;-67
2022/05/16 06:44:44;;;;;;;8.20;2.00;;;;;;;26.29;39.53;101067.28;5034472;28;20053;-67
2022/05/16 06:47:10;;;;;;;6.72;2.03;;;;;;;26.38;39.31;101076.06;5034111;28;20049;-69
2022/05/16 06:49:35;;;;;;;7.78;2.40;;;;;;;26.47;39.34;101086.53;5034508;28;20060;-67
2022/05/16 06:52:01;;;;;;;7.43;2.05;;;;;;;26.57;39.29;101083.25;5034575;28;20029;-67
2022/05/16 06:54:26;;;;;;;5.38;1.60;;;;;;;26.69;38.92;101094.34;5034158;28;20025;-67
2022/05/16 06:56:51;;;;;;;4.90;1.80;;;;;;;26.80;38.42;101091.69;5033605;28;20022;-67
2022/05/16 06:59:19;;;;;;;7.20;1.90;;;;;;;26.90;38.60;101094.75;5033720;28;20049;-67
2022/05/16 07:01:44;;;;;;;8.10;2.15;;;;;;;27.02;38.04;101092.09;5033894;28;20100;-67
2022/05/16 07:04:10;;;;;;;11.00;2.20;;;;;;;27.18;37.74;101094.19;5033939;28;20033;-67
2022/05/16 07:06:35;;;;;;;6.88;1.52;;;;;;;27.52;37.84;101089.97;5033862;28;20021;-67
2022/05/16 07:09:01;;;;;;;9.82;2.25;;;;;;;27.70;37.66;101092.63;5033840;28;20030;-67
2022/05/16 07:11:27;;;;;;;4.93;1.92;;;;;;;27.91;36.93;101088.50;5033798;28;20394;-67
2022/05/16 07:13:52;;;;;;;6.72;1.67;;;;;;;28.06;37.04;101089.75;5033979;28;20033;-67
2022/05/16 07:16:17;;;;;;;8.20;2.90;;;;;;;28.22;38.19;101094.59;5051280;28;20092;-68
2022/05/16 07:18:43;;;;;;;4.03;1.80;;;;;;;28.37;37.45;101094.09;5053847;28;20112;-67
2022/05/16 07:21:08;;;;;;;5.78;1.85;;;;;;;28.48;36.59;101100.69;5053849;28;20048;-67
2022/05/16 07:23:34;;;;;;;7.18;2.03;;;;;;;28.58;36.45;101095.41;5053851;28;20025;-67
2022/05/16 07:28:43;;;;;;;5.32;1.77;;;;;;;28.78;36.76;101093.16;5053490;28;20036;-68
2022/05/16 07:31:10;;;;;;;8.15;1.70;;;;;;;28.86;35.75;101095.53;5053679;28;20021;-68
2022/05/16 07:33:35;;;;;;;4.80;1.85;;;;;;;28.94;35.71;101105.34;5053574;28;20029;-67
2022/05/16 07:36:00;;;;;;;6.90;1.40;;;;;;;28.98;35.57;101110.13;5053731;28;20025;-68
2022/05/16 07:38:26;;;;;;;5.63;2.10;;;;;;;29.05;36.20;101104.47;5053547;28;20471;-68
2022/05/16 07:40:52;;;;;;;8.07;1.92;;;;;;;29.07;35.84;101111.44;5053816;28;20021;-68
2022/05/16 07:43:18;;;;;;;7.07;1.50;;;;;;;29.67;35.33;101105.47;5053499;28;20497;-68
2022/05/16 07:45:44;;;;;;;10.13;2.08;;;;;;;30.24;34.76;101106.22;5053283;28;20079;-67
2022/05/16 07:48:09;;;;;;;7.50;1.85;;;;;;;30.79;33.97;101104.34;5053026;28;20025;-68
2022/05/16 07:50:41;;;;;;;6.00;1.88;;;;;;;31.28;33.96;101102.50;5053092;28;20511;-68
2022/05/16 07:53:12;;;;;;;5.68;1.85;;;;;;;31.75;33.45;101097.22;5053123;28;20394;-68
2022/05/16 07:55:41;;;;;;;7.65;1.75;;;;;;;32.19;33.53;101109.03;5053253;28;20059;-67
2022/05/16 07:58:06;;;;;;;10.80;2.13;;;;;;;32.53;32.67;101107.59;5052936;28;20013;-68
2022/05/16 08:00:32;;;;;;;7.72;1.48;;;;;;;32.68;33.05;101113.28;5052923;28;20689;-68
2022/05/16 08:02:57;;;;;;;8.05;2.10;;;;;;;33.08;32.13;101109.94;5053039;28;20386;-68
2022/05/16 08:05:23;;;;;;;6.70;1.38;;;;;;;33.48;32.17;101103.66;5052997;28;20033;-68
2022/05/16 08:10:34;;;;;;;4.85;1.60;;;;;;;34.23;31.64;101105.75;5056979;28;20036;-68
2022/05/16 08:13:01;;;;;;;2.22;1.35;;;;;;;34.11;31.52;101104.38;5056807;28;20494;-68
2022/05/16 08:15:28;;;;;;;3.17;1.33;;;;;;;34.38;31.07;101111.31;5057163;28;20052;-69
2022/05/16 08:17:53;;;;;;;5.88;1.38;;;;;;;34.44;31.50;101112.13;5056769;28;20017;-68
2022/05/16 08:20:19;;;;;;;8.20;1.48;;;;;;;34.54;31.29;101114.88;5056841;28;20140;-68
2022/05/16 08:22:44;;;;;;;5.03;1.10;;;;;;;34.75;30.41;101111.00;5056825;28;20021;-69
2022/05/16 08:25:10;;;;;;;6.68;1.60;;;;;;;34.75;31.02;101116.56;5056713;28;20017;-68
2022/05/16 08:27:35;;;;;;;2.08;1.30;;;;;;;34.62;30.86;101114.34;5056641;28;20036;-68
2022/05/16 08:30:00;;;;;;;4.15;1.13;;;;;;;34.45;30.32;101116.59;5056668;28;20021;-68
2022/05/16 08:32:26;;;;;;;2.65;1.42;;;;;;;34.35;30.69;101111.88;5056603;28;20064;-68
2022/05/16 08:34:56;;;;;;;1.35;1.20;;;;;;;34.36;31.10;101118.28;5056568;28;20025;-68
2022/05/16 08:40:06;;;;;;;1.50;1.00;;;;;;;34.10;30.53;101116.59;5056498;28;20028;-68
2022/05/16 08:42:56;;;;;;;5.25;1.30;;;;;;;34.33;30.37;101119.66;5056765;28;20033;-67
2022/05/16 08:45:43;;;;;;;3.67;1.38;;;;;;;34.21;31.00;101121.03;5056396;28;20025;-68
2022/05/16 08:48:17;;;;;;;2.17;0.88;;;;;;;34.62;30.57;101124.69;5048813;28;20044;-67
2022/05/16 08:50:50;;;;;;;2.38;1.10;;;;;;;35.04;29.18;101122.31;5032726;28;20490;-68
2022/05/16 08:53:23;;;;;;;4.53;1.20;;;;;;;35.19;29.51;101121.44;5029106;28;20040;-68
2022/05/16 08:55:51;;;;;;;1.33;1.08;;;;;;;35.55;29.29;101126.59;5036188;28;20021;-68
2022/05/16 08:58:24;;;;;;;5.60;1.10;;;;;;;35.99;29.13;101132.16;5018518;28;20056;-68
2022/05/16 09:00:54;;;;;;;4.82;1.10;;;;;;;36.12;28.75;101131.53;5036049;28;20037;-68
2022/05/16 09:03:33;;;;;;;3.08;1.02;;;;;;;35.89;29.03;101125.81;5036265;28;20390;-67
2022/05/16 09:06:01;;;;;;;3.53;1.02;;;;;;;36.23;29.00;101132.28;5018683;28;20065;-68
2022/05/16 09:08:36;;;;;;;5.38;1.10;;;;;;;36.65;28.25;101128.84;5018390;28;20025;-68
2022/05/16 09:11:10;;;;;;;2.97;1.27;;;;;;;36.92;28.59;101131.88;5018208;28;20025;-68
2022/05/16 09:13:42;;;;;;;5.97;1.15;;;;;;;36.97;28.21;101134.63;5024408;28;20620;-67
2022/05/16 09:16:29;;;;;;;7.20;1.55;;;;;;;37.11;28.29;101132.78;5018334;28;20029;-68
2022/05/16 09:19:14;;;;;;;3.60;1.17;;;;;;;37.50;27.74;101134.53;5035883;28;20021;-69
2022/05/16 09:22:01;;;;;;;1.65;1.40;;;;;;;37.66;27.73;101133.22;5035147;28;20108;-68
2022/05/16 09:24:46;;;;;;;4.63;1.20;;;;;;;38.07;27.21;101134.28;5018090;28;20116;-68
2022/05/16 09:28:34;;;;;;;3.17;1.33;;;;;;;38.42;27.07;101138.44;5017802;28;20400;-68
2022/05/16 09:29:59;;;;;;;4.03;1.38;;;;;;;38.74;27.04;101134.78;5015757;28;20025;-68
2022/05/16 09:32:28;;;;;;;2.75;1.30;;;;;;;38.98;27.02;101147.50;5015696;28;20031;-67
2022/05/16 09:34:54;;;;;;;3.40;1.20;;;;;;;39.26;26.27;101147.50;5014653;28;20045;-68
2022/05/16 09:37:20;;;;;;;4.60;1.25;;;;;;;39.50;26.25;101150.94;5015770;28;20460;-69
2022/05/16 09:39:45;;;;;;;3.13;1.30;;;;;;;39.51;25.64;101152.56;5015663;28;20442;-69
2022/05/16 09:42:14;;;;;;;4.32;1.55;;;;;;;39.24;25.73;101158.22;5015619;28;20034;-68
2022/05/16 09:45:02;;;;;;;5.63;1.65;;;;;;;38.87;26.63;101159.22;4997992;28;20029;-68
2022/05/16 09:47:28;;;;;;;2.33;1.50;;;;;;;38.51;26.45;101169.38;5015507;28;20122;-69
2022/05/16 09:50:02;;;;;;;1.73;1.15;;;;;;;38.11;27.24;101182.91;5015507;28;20116;-69
2022/05/16 09:52:29;;;;;;;7.03;1.70;;;;;;;37.94;26.74;101185.44;5015419;28;20037;-68
2022/05/16 09:55:06;;;;;;;1.83;1.20;;;;;;;37.63;27.00;101189.75;5015389;28;20022;-68
2022/05/16 09:57:40;;;;;;;5.97;1.55;;;;;;;37.48;26.85;101203.94;5015592;28;20018;-68
2022/05/16 10:00:42;;;;;;;12.63;2.50;;;;;;;37.31;27.12;101210.81;4997892;28;20046;-68
2022/05/16 10:03:20;;;;;;;5.13;1.42;;;;;;;36.72;27.87;101207.50;5014953;28;20526;-68
2022/05/16 10:05:47;;;;;;;10.75;2.20;;;;;;;36.21;27.88;101213.47;4997625;28;20038;-68
2022/05/16 10:08:17;;;;;;;4.90;1.70;;;;;;;35.81;28.81;101213.72;5015318;28;20025;-67
2022/05/16 10:10:45;;;;;;;4.53;1.33;;;;;;;35.52;28.54;101221.91;5014898;28;20026;-67
2022/05/16 10:13:12;;;;;;;6.38;3.15;;;;;;;35.39;28.78;101221.69;5013367;28;20033;-67
2022/05/16 10:15:37;;;;;;;7.10;2.10;;;;;;;35.38;28.92;101208.88;5033141;28;20108;-68
2022/05/16 10:18:06;;;;;;;3.28;1.42;;;;;;;35.45;28.36;101215.00;5034599;28;20053;-68
2022/05/16 10:20:42;;;;;;;3.88;2.42;;;;;;;35.53;29.17;101220.81;5016926;28;20033;-68
2022/05/16 10:23:11;;;;;;;4.95;1.52;;;;;;;35.49;28.91;101224.44;5017183;28;20424;-67
2022/05/16 10:25:43;;;;;;;4.72;2.10;;;;;;;35.45;28.54;101215.00;5016943;28;20038;-67
2022/05/16 10:28:15;;;;;;;5.55;2.30;;;;;;;35.50;28.84;101217.75;5034510;28;20021;-68
2022/05/16 10:33:28;;;;;;;5.85;2.10;;;;;;;35.58;28.75;101226.38;5046475;28;20060;-68
2022/05/16 10:36:00;;;;;;;4.38;1.75;;;;;;;36.39;28.71;101230.66;5049942;28;20037;-68
2022/05/16 10:38:47;;;;;;;4.45;2.05;;;;;;;36.99;27.91;101233.00;5034628;28;20132;-68
2022/05/16 10:41:22;;;;;;;6.20;2.08;;;;;;;36.84;27.92;101227.50;5049674;28;20033;-68
2022/05/16 10:44:13;;;;;;;8.00;1.80;;;;;;;37.22;28.10;101240.56;5016489;28;20032;-68
2022/05/16 10:46:42;;;;;;;6.43;2.17;;;;;;;37.31;28.00;101241.56;5049609;28;20069;-68
2022/05/16 10:49:13;;;;;;;2.25;1.92;;;;;;;37.42;28.10;101249.84;5034290;28;20407;-68
2022/05/16 10:51:52;;;;;;;10.65;1.92;;;;;;;37.33;28.06;101255.25;5034343;28;20422;-68
2022/05/16 10:54:25;;;;;;;7.57;1.88;;;;;;;36.87;28.93;101259.63;5070816;28;20881;-68
2022/05/16 10:57:13;;;;;;;4.45;1.85;;;;;;;36.93;28.87;101262.06;5069318;28;20068;-67
2022/05/16 11:00:07;;;;;;;7.03;2.45;;;;;;;37.36;28.55;101262.22;5070286;28;20017;-67
2022/05/16 11:02:35;;;;;;;4.85;1.92;;;;;;;37.53;28.59;101276.56;5070582;28;20035;-68
2022/05/16 11:05:10;;;;;;;12.50;2.60;;;;;;;37.47;28.30;101263.81;5070417;28;20390;-69
2022/05/16 11:07:42;;;;;;;8.10;2.53;;;;;;;37.54;28.26;101269.88;5070384;28;20060;-69
2022/05/16 11:10:23;;;;;;;6.57;2.35;;;;;;;37.43;29.01;101279.50;5069179;28;20474;-68
2022/05/16 11:12:53;;;;;;;9.52;2.67;;;;;;;37.52;28.36;101278.56;5070146;28;20054;-67
2022/05/16 11:15:27;;;;;;;3.80;2.33;;;;;;;37.21;28.67;101278.03;5083045;28;20112;-68
2022/05/16 11:18:01;;;;;;;4.97;2.47;;;;;;;36.83;29.04;101275.28;5089248;28;20136;-68
2022/05/16 11:20:31;;;;;;;4.32;2.63;;;;;;;36.42;29.02;101281.19;5089095;28;20505;-68
2022/05/16 11:23:02;;;;;;;11.27;2.50;;;;;;;36.06;30.03;101277.78;5089090;28;20389;-68
2022/05/16 11:25:46;;;;;;;4.28;2.13;;;;;;;35.67;30.14;101293.56;5072315;28;20032;-68
2022/05/16 11:28:24;;;;;;;5.35;2.60;;;;;;;35.49;29.86;101283.81;5088909;28;20086;-68
2022/05/16 11:31:08;;;;;;;7.18;2.85;;;;;;;35.34;30.13;101292.25;5090220;28;20386;-67
2022/05/16 11:33:49;;;;;;;6.70;2.42;;;;;;;34.98;30.37;101296.16;5069705;28;20433;-68
2022/05/16 11:36:25;;;;;;;4.28;2.75;;;;;;;34.76;30.04;101302.00;5069990;28;20056;-68
2022/05/16 11:38:57;;;;;;;3.33;2.17;;;;;;;34.51;31.28;101304.72;5069629;28;20117;-68
2022/05/16 11:41:51;;;;;;;10.80;4.15;;;;;;;34.34;30.28;101304.97;5069938;28;20436;-68
2022/05/16 11:44:38;;;;;;;5.90;2.50;;;;;;;34.27;31.42;101311.91;5050191;28;20551;-68
2022/05/16 11:47:15;;;;;;;5.22;3.00;;;;;;;34.22;31.66;101309.13;5068268;28;20024;-67
2022/05/16 11:49:52;;;;;;;8.05;3.15;;;;;;;34.10;31.14;101303.81;5068179;28;20150;-68
2022/05/16 11:52:39;;;;;;;4.95;3.05;;;;;;;34.17;31.68;101309.13;5069262;28;20060;-68
2022/05/16 12:00:50;;;;;;;6.72;2.63;;;;;;;34.27;31.88;101315.53;5068031;28;20039;-68
2022/05/16 12:03:19;;;;;;;7.72;3.08;;;;;;;34.09;31.82;101326.34;5069118;28;20021;-68
2022/05/16 12:05:46;;;;;;;4.95;2.90;;;;;;;33.87;32.06;101327.31;5055001;28;20114;-68
2022/05/16 12:08:12;;;;;;;9.10;3.15;;;;;;;33.70;32.39;101329.47;5055878;28;20025;-68